Terminal Aerodrome Forecast
Issued by NWS

Home | Current Version | Previous Version | Graphics & Text | Print | Product List | Glossary On
Versions: 1 2 3 4 5 6 7 8 9 10 11 12 13 14 15 16 17 18
000
FTUS43 KICT 151100
TAFHUT
TAF
KHUT 151137Z 1512/1612 19012KT P6SM BKN200
     FM151400 23012KT P6SM SCT100 BKN200
     FM151800 01014G20KT P6SM VCSH BKN025
     FM152300 04011KT P6SM VCSH OVC020
     FM160600 08011KT P6SM BKN012=

USA.gov is the U.S. government's official web portal to all federal, state and local government web resources and services.